Nearby METAR Reports

 

KCPC - Whiteville, North Carolina, USA
Distance from station: NNE 17mi, 28km
Updated: 02/26/2020 2:15pm
NOT Current
Clear
Clear
 Wind from SSE
Wind: SSE 5 mph , 7 km/h
Temperature: 66°F , 19°C
Dew Point: 64°F , 18°C
Humidity: 94%
Barometer: 29.77 inHg , 1008.1 hPa
Clouds: Clear
Visibility: 10 miles , 16 km
2020/02/26 19:15 KCPC 261915Z AUTO 16004KT 10SM CLR 19/18 A2977 RMK AO2 T01880180
KCRE - North Myrtle Bea, South Carolina, USA
Distance from station: SSE 19mi, 31km
Updated: 02/26/2020 5:53pm
Mostly cloudy
Mostly cloudy
 Wind from WSW
Wind: WSW 12 mph , 19 km/h
Temperature: 64°F , 18°C
Dew Point: 59°F , 15°C
Humidity: 83%
Barometer: 29.78 inHg , 1008.5 hPa
Clouds: Mostly cloudy
Visibility: 10 miles , 16 km
Cloud details: Mostly cloudy 11000 ft
2020/02/26 22:53 KCRE 262253Z 24010KT 10SM BKN110 18/15 A2978 RMK AO1 RAE08B28E44 SLP084 P0001 T01780150
 
KHYW - Conway-Horry Cty, South Carolina, USA
Distance from station: SW 22mi, 35km
Updated: 02/26/2020 5:55pm
Partly cloudy
Partly cloudy
 Wind from SSW
Wind: SSW 8 mph , 13 km/h
Temperature: 61°F , 16°C
Dew Point: 59°F , 15°C
Humidity: 94%
Barometer: 29.77 inHg , 1008.1 hPa
Clouds: Partly cloudy
Visibility: 10 miles , 16 km
Cloud details: Partly cloudy 10000 ft
2020/02/26 22:55 KHYW 262255Z AUTO 20007KT 10SM SCT100 16/15 A2977 RMK AO2
KMAO - Marion, South Carolina, USA
Distance from station: WNW 28mi, 45km
Updated: 02/26/2020 6:15pm
Light rain, Overcast
Light rain, Overcast
 Wind from SW
Wind: SW 7 mph , 11 km/h, Gust: 18 mph , 30 km/h
Temperature: 61°F , 16°C
Dew Point: 59°F , 15°C
Humidity: 94%
Barometer: 29.74 inHg , 1007.1 hPa
Summary: Light rain
Clouds: Overcast
Visibility: 10 miles , 16 km
Cloud details: Partly cloudy 1200 ft
Overcast 10000 ft
2020/02/26 23:15 KMAO 262315Z AUTO 22006G16KT 10SM -RA SCT012 OVC100 16/15 A2974 RMK AO2
 
KMYR - Myrtle Beach, South Carolina, USA
Distance from station: S 28mi, 45km
Updated: 02/26/2020 5:56pm

 Wind from W
Wind: W 8 mph , 13 km/h
Temperature: 63°F , 17°C
Dew Point: 61°F , 16°C
Humidity: 94%
Barometer: 29.78 inHg , 1008.5 hPa
Visibility: 10 miles , 16 km
2020/02/26 22:56 KMYR 262256Z 26007KT 10SM 17/16 A2978 RMK AO2 RAE35 SLP085 P0000 T01720161
KLBT - Lumberton, North Carolina, USA
Distance from station: NNW 39mi, 62km
Updated: 03/28/2019 9:55am
NOT Current

 
2019/03/28 13:55 KLBT 281355Z MKT MSM M M M M A0000 M M RMK TEST
 
KSUT - Southport, North Carolina, USA
Distance from station: E 46mi, 74km
Updated: 02/26/2020 6:15pm
Light drizzle, Mostly cloudy
Light drizzle, Mostly cloudy
 Wind from SW
Wind: SW 7 mph , 11 km/h
Temperature: 59°F , 15°C
Dew Point: 59°F , 15°C
Humidity: 100%
Barometer: 29.79 inHg , 1008.8 hPa
Summary: Light Drizzle
Clouds: Mostly cloudy
Visibility: 7 miles , 11 km
Cloud details: Mostly cloudy 10000 ft
2020/02/26 23:15 KSUT 262315Z AUTO 23006KT 7SM -DZ BKN100 15/15 A2979 RMK AO2 T01510145
KFLO - Florence, South Carolina, USA
Distance from station: W 50mi, 81km
Updated: 02/26/2020 5:53pm
Overcast
Overcast
 Wind from SSW
Wind: SSW 14 mph , 22 km/h
Temperature: 64°F , 18°C
Dew Point: 57°F , 14°C
Humidity: 78%
Barometer: 29.74 inHg , 1007.1 hPa
Clouds: Overcast
Visibility: 10 miles , 16 km
Cloud details: Mostly cloudy 1600 ft
Overcast 11000 ft
2020/02/26 22:53 KFLO 262253Z 21012KT 10SM BKN016 OVC110 18/14 A2974 RMK AO2 SLP069 T01830144